createdAt,value
2018-01-14T00:02:47.179Z," 4.02"
2018-01-14T00:07:42.795Z," 4.02"
2018-01-14T00:12:38.418Z," 4.06"
2018-01-14T00:17:34.789Z," 4.05"
2018-01-14T00:22:31.508Z," 4.19"
2018-01-14T00:27:28.076Z," 3.98"
2018-01-14T00:32:23.583Z," 4.24"
2018-01-14T00:37:23.025Z," 4.14"
2018-01-14T00:42:19.759Z," 4.22"
2018-01-14T00:47:16.157Z," 4.20"
2018-01-14T00:52:12.501Z," 4.40"
2018-01-14T00:57:08.041Z," 4.14"
2018-01-14T01:02:03.857Z," 4.01"
2018-01-14T01:07:00.601Z," 3.80"
2018-01-14T01:11:56.948Z," 3.63"
2018-01-14T01:16:53.439Z," 3.86"
2018-01-14T01:21:49.710Z," 3.87"
2018-01-14T01:26:49.628Z," 3.96"
2018-01-14T01:31:44.502Z," 4.08"
2018-01-14T01:36:41.898Z," 3.65"
2018-01-14T01:41:40.457Z," 3.69"
2018-01-14T01:46:37.300Z," 3.81"
2018-01-14T01:51:35.736Z," 3.55"
2018-01-14T01:56:30.720Z," 3.55"
2018-01-14T02:01:26.000Z," 3.68"
2018-01-14T02:06:24.787Z," 3.65"
2018-01-14T02:11:20.789Z," 3.53"
2018-01-14T02:16:16.165Z," 3.50"
2018-01-14T02:21:12.216Z," 3.59"
2018-01-14T02:26:09.002Z," 3.44"
2018-01-14T02:31:05.169Z," 3.41"
2018-01-14T02:36:02.580Z," 3.26"
2018-01-14T02:40:58.611Z," 3.58"
2018-01-14T02:45:55.359Z," 3.58"
2018-01-14T02:50:50.791Z," 3.36"
2018-01-14T02:55:49.293Z," 3.34"
2018-01-14T03:00:44.649Z," 3.34"
2018-01-14T03:05:40.824Z," 3.23"
2018-01-14T03:10:37.097Z," 3.31"
2018-01-14T03:15:34.468Z," 3.32"
2018-01-14T03:20:29.890Z," 3.21"
2018-01-14T03:25:25.447Z," 3.22"
2018-01-14T03:30:24.149Z," 3.32"
2018-01-14T03:35:19.106Z," 3.36"
2018-01-14T03:40:15.775Z," 3.19"
2018-01-14T03:45:12.094Z," 3.22"
2018-01-14T03:50:11.644Z," 3.23"
2018-01-14T03:55:07.547Z," 3.34"
2018-01-14T04:00:04.770Z," 3.16"
2018-01-14T04:05:01.725Z," 3.05"
2018-01-14T04:09:58.320Z," 2.92"
2018-01-14T04:14:53.494Z," 3.10"
2018-01-14T04:19:49.329Z," 3.03"
2018-01-14T04:24:47.025Z," 3.21"
2018-01-14T04:29:43.210Z," 3.03"
2018-01-14T04:34:39.461Z," 3.13"
2018-01-14T04:39:36.642Z," 3.11"
2018-01-14T04:44:31.612Z," 3.08"
2018-01-14T04:49:28.143Z," 3.18"
2018-01-14T04:54:25.746Z," 3.05"
2018-01-14T04:59:21.783Z," 3.31"
2018-01-14T05:04:19.352Z," 3.10"
2018-01-14T05:09:15.555Z," 3.16"
2018-01-14T05:14:10.877Z," 3.18"
2018-01-14T05:19:07.517Z," 2.97"
2018-01-14T05:24:03.798Z," 2.98"
2018-01-14T05:29:00.966Z," 3.11"
2018-01-14T05:33:57.379Z," 2.98"
2018-01-14T05:38:55.115Z," 2.98"
2018-01-14T05:43:51.430Z," 2.90"
2018-01-14T05:48:48.683Z," 2.93"
2018-01-14T05:53:43.734Z," 3.01"
2018-01-14T05:58:40.980Z," 3.28"
2018-01-14T06:03:37.992Z," 3.01"
2018-01-14T06:08:34.032Z," 3.10"
2018-01-14T06:13:30.352Z," 3.18"
2018-01-14T06:18:26.991Z," 3.08"
2018-01-14T06:23:24.215Z," 2.95"
2018-01-14T06:28:20.726Z," 2.90"
2018-01-14T06:33:17.109Z," 3.10"
2018-01-14T06:38:13.533Z," 3.10"
2018-01-14T06:43:09.969Z," 3.16"
2018-01-14T06:48:06.528Z," 3.19"
2018-01-14T06:53:03.832Z," 2.95"
2018-01-14T06:57:59.787Z," 2.87"
2018-01-14T07:02:56.226Z," 2.83"
2018-01-14T07:07:53.465Z," 2.90"
2018-01-14T07:12:54.609Z," 2.77"
2018-01-14T07:17:51.030Z," 2.90"
2018-01-14T07:22:50.383Z," 2.79"
2018-01-14T07:27:46.220Z," 2.95"
2018-01-14T07:32:42.559Z," 2.71"
2018-01-14T07:37:39.122Z," 2.87"
2018-01-14T07:42:36.563Z," 2.98"
2018-01-14T07:47:32.675Z," 2.90"
2018-01-14T07:52:30.329Z," 2.86"
2018-01-14T07:57:28.021Z," 2.89"
2018-01-14T08:02:25.322Z," 3.00"
2018-01-14T08:07:24.600Z," 2.92"
2018-01-14T08:12:19.703Z," 2.92"
2018-01-14T08:17:16.411Z," 2.85"
2018-01-14T08:22:11.839Z," 2.80"
2018-01-14T08:27:08.429Z," 2.98"
2018-01-14T08:32:05.882Z," 2.85"
2018-01-14T08:37:05.056Z," 2.85"
2018-01-14T08:42:00.116Z," 2.69"
2018-01-14T08:46:56.835Z," 2.61"
2018-01-14T08:51:54.092Z," 2.57"
2018-01-14T08:56:51.232Z," 2.72"
2018-01-14T09:01:47.398Z," 2.86"
2018-01-14T09:06:48.743Z," 2.85"
2018-01-14T09:11:44.371Z," 3.05"
2018-01-14T09:16:41.889Z," 3.31"
2018-01-14T09:21:38.198Z," 3.23"
2018-01-14T09:26:34.993Z," 3.36"
2018-01-14T09:31:31.523Z," 3.31"
2018-01-14T09:36:29.283Z," 3.07"
2018-01-14T09:41:25.021Z," 3.13"
2018-01-14T09:46:22.178Z," 3.23"
2018-01-14T09:51:18.724Z," 3.23"
2018-01-14T09:56:16.334Z," 3.34"
2018-01-14T10:01:11.510Z," 3.51"
2018-01-14T10:06:09.541Z," 3.68"
2018-01-14T10:11:05.802Z," 3.80"
2018-01-14T10:16:02.781Z," 3.74"
2018-01-14T10:21:02.156Z," 3.66"
2018-01-14T10:25:58.081Z," 3.63"
2018-01-14T10:30:54.541Z," 3.65"
2018-01-14T10:35:51.248Z," 3.37"
2018-01-14T10:40:47.468Z," 3.68"
2018-01-14T10:45:45.123Z," 3.58"
2018-01-14T10:50:41.472Z," 3.78"
2018-01-14T10:55:41.136Z," 3.63"
2018-01-14T11:00:37.178Z," 3.87"
2018-01-14T11:05:33.634Z," 3.69"
2018-01-14T11:10:30.171Z," 4.01"
2018-01-14T11:15:25.425Z," 3.87"
2018-01-14T11:20:21.311Z," 4.02"
2018-01-14T11:25:18.121Z," 4.22"
2018-01-14T11:30:13.916Z," 4.31"
2018-01-14T11:35:11.654Z," 4.48"
2018-01-14T11:40:08.512Z," 4.42"
2018-01-14T11:45:04.428Z," 4.42"
2018-01-14T11:50:02.393Z," 4.14"
2018-01-14T11:55:00.232Z," 4.19"
2018-01-14T12:00:01.422Z," 4.55"
2018-01-14T12:04:56.974Z," 4.52"
2018-01-14T12:09:53.466Z," 4.82"
2018-01-14T12:14:51.838Z," 4.67"
2018-01-14T12:19:47.923Z," 4.48"
2018-01-14T12:24:45.505Z," 4.73"
2018-01-14T12:29:41.703Z," 4.87"
2018-01-14T12:34:38.806Z," 4.94"
2018-01-14T12:39:33.965Z," 4.74"
2018-01-14T12:44:29.727Z," 4.71"
2018-01-14T12:49:27.300Z," 4.67"
2018-01-14T12:54:23.994Z," 4.71"
2018-01-14T12:59:20.482Z," 4.80"
2018-01-14T13:04:18.168Z," 4.73"
2018-01-14T13:09:18.210Z," 4.71"
2018-01-14T13:14:13.869Z," 4.71"
2018-01-14T13:19:10.033Z," 4.71"
2018-01-14T13:24:05.634Z," 4.73"
2018-01-14T13:29:03.244Z," 4.78"
2018-01-14T13:34:01.027Z," 4.75"
2018-01-14T13:38:57.288Z," 4.74"
2018-01-14T13:43:53.411Z," 4.70"
2018-01-14T13:48:49.030Z," 4.74"
2018-01-14T13:53:45.933Z," 4.80"
2018-01-14T13:58:42.835Z," 4.77"
2018-01-14T14:03:39.350Z," 4.71"
2018-01-14T14:08:34.835Z," 4.70"
2018-01-14T14:13:32.620Z," 4.66"
2018-01-14T14:18:29.567Z," 4.67"
2018-01-14T14:23:25.651Z," 4.70"
2018-01-14T14:28:22.686Z," 4.55"
2018-01-14T14:33:18.786Z," 4.58"
2018-01-14T14:38:15.309Z," 4.45"
2018-01-14T14:43:12.315Z," 4.49"
2018-01-14T14:48:09.314Z," 4.41"
2018-01-14T14:53:05.522Z," 4.58"
2018-01-14T14:58:02.113Z," 4.52"
2018-01-14T15:02:57.675Z," 4.42"
2018-01-14T15:07:54.400Z," 4.44"
2018-01-14T15:12:50.952Z," 4.48"
2018-01-14T15:17:48.121Z," 4.40"
2018-01-14T15:22:43.464Z," 4.22"
2018-01-14T15:27:39.326Z," 4.24"
2018-01-14T15:32:34.751Z," 4.19"
2018-01-14T15:37:30.378Z," 4.22"
2018-01-14T15:42:26.143Z," 4.08"
2018-01-14T15:47:21.747Z," 3.98"
2018-01-14T15:52:17.398Z," 3.84"
2018-01-14T15:57:13.063Z," 3.66"
2018-01-14T16:02:08.607Z," 3.68"
2018-01-14T16:07:04.286Z," 3.73"
2018-01-14T16:11:59.751Z," 3.32"
2018-01-14T16:16:56.225Z," 3.25"
2018-01-14T16:21:51.435Z," 3.23"
2018-01-14T16:26:48.855Z," 3.25"
2018-01-14T16:31:44.132Z," 3.00"
2018-01-14T16:36:39.715Z," 3.03"
2018-01-14T16:41:35.530Z," 2.89"
2018-01-14T16:46:30.957Z," 2.68"
2018-01-14T16:51:27.057Z," 2.47"
2018-01-14T16:56:22.232Z," 2.44"
2018-01-14T17:01:18.768Z," 2.28"
2018-01-14T17:06:14.182Z," 2.20"
2018-01-14T17:11:10.518Z," 2.10"
2018-01-14T17:16:06.819Z," 2.18"
2018-01-14T17:21:02.202Z," 2.25"
2018-01-14T17:25:58.891Z," 2.07"
2018-01-14T17:30:56.375Z," 2.08"
2018-01-14T17:35:52.350Z," 2.14"
2018-01-14T17:40:48.753Z," 2.35"
2018-01-14T17:45:44.267Z," 2.62"
2018-01-14T17:50:40.955Z," 2.53"
2018-01-14T17:55:38.323Z," 2.56"
2018-01-14T18:00:33.716Z," 2.61"
2018-01-14T18:05:29.187Z," 2.68"
2018-01-14T18:10:24.819Z," 2.64"
2018-01-14T18:15:21.181Z," 2.69"
2018-01-14T18:20:17.784Z," 2.65"
2018-01-14T18:25:13.706Z," 2.56"
2018-01-14T18:30:09.149Z," 2.62"
2018-01-14T18:35:04.627Z," 2.64"
2018-01-14T18:40:01.387Z," 2.56"
2018-01-14T18:44:56.509Z," 2.61"
2018-01-14T18:49:52.209Z," 2.49"
2018-01-14T18:54:49.321Z," 2.64"
2018-01-14T18:59:44.778Z," 2.47"
2018-01-14T19:04:41.335Z," 2.47"
2018-01-14T19:09:37.878Z," 2.44"
2018-01-14T19:14:34.019Z," 2.36"
2018-01-14T19:19:31.273Z," 2.46"
2018-01-14T19:24:26.402Z," 2.43"
2018-01-14T19:29:22.254Z," 2.44"
2018-01-14T19:34:18.084Z," 2.33"
2018-01-14T19:39:13.976Z," 2.26"
2018-01-14T19:44:09.152Z," 2.14"
2018-01-14T19:49:04.807Z," 2.20"
2018-01-14T19:54:01.613Z," 2.15"
2018-01-14T19:58:57.189Z," 2.13"
2018-01-14T20:03:52.732Z," 2.06"
2018-01-14T20:08:49.603Z," 2.06"
2018-01-14T20:13:45.869Z," 2.08"
2018-01-14T20:18:42.081Z," 2.14"
2018-01-14T20:23:38.105Z," 2.08"
2018-01-14T20:28:34.800Z," 2.14"
2018-01-14T20:33:30.934Z," 2.14"
2018-01-14T20:38:27.276Z," 2.07"
2018-01-14T20:43:22.705Z," 2.06"
2018-01-14T20:48:18.190Z," 2.04"
2018-01-14T20:53:14.974Z," 2.07"
2018-01-14T20:58:10.922Z," 2.06"
2018-01-14T21:03:07.643Z," 2.02"
2018-01-14T21:08:04.007Z," 2.00"
2018-01-14T21:12:59.363Z," 1.89"
2018-01-14T21:17:56.138Z," 1.89"
2018-01-14T21:22:51.454Z," 1.97"
2018-01-14T21:27:48.029Z," 1.95"
2018-01-14T21:32:43.608Z," 1.84"
2018-01-14T21:37:39.787Z," 1.89"
2018-01-14T21:42:35.228Z," 1.71"
2018-01-14T21:47:31.597Z," 1.73"
2018-01-14T21:52:27.871Z," 1.77"
2018-01-14T21:57:24.328Z," 1.68"
2018-01-14T22:02:20.204Z," 1.76"
2018-01-14T22:07:15.829Z," 1.67"
2018-01-14T22:12:11.079Z," 1.70"
2018-01-14T22:17:08.994Z," 1.74"
2018-01-14T22:22:04.140Z," 1.67"
2018-01-14T22:27:01.091Z," 1.68"
2018-01-14T22:31:58.267Z," 1.63"
2018-01-14T22:36:54.716Z," 1.78"
2018-01-14T22:41:50.044Z," 1.63"
2018-01-14T22:46:45.972Z," 1.76"
2018-01-14T22:51:42.505Z," 1.68"
2018-01-14T22:56:39.657Z," 1.59"
2018-01-14T23:01:36.066Z," 1.63"
2018-01-14T23:06:32.304Z," 1.76"
2018-01-14T23:11:28.655Z," 1.73"
2018-01-14T23:16:24.862Z," 1.74"
2018-01-14T23:21:20.340Z," 1.73"
2018-01-14T23:26:17.182Z," 1.73"
2018-01-14T23:31:13.762Z," 1.80"
2018-01-14T23:36:11.445Z," 1.77"
2018-01-14T23:41:07.142Z," 1.74"
2018-01-14T23:46:03.865Z," 1.78"
2018-01-14T23:51:01.332Z," 1.81"
2018-01-14T23:55:58.127Z," 1.88"
